sensor_id;sensor_type;location;lat;lon;timestamp;temperature;humidity
15355;DHT22;7777;52.254;9.618;2023-07-22T00:01:01;15.90;91.80
15355;DHT22;7777;52.254;9.618;2023-07-22T00:03:27;15.90;91.80
15355;DHT22;7777;52.254;9.618;2023-07-22T00:08:32;15.90;91.90
15355;DHT22;7777;52.254;9.618;2023-07-22T00:10:58;15.90;92.20
15355;DHT22;7777;52.254;9.618;2023-07-22T00:13:24;15.90;91.90
15355;DHT22;7777;52.254;9.618;2023-07-22T00:15:55;15.90;92.00
15355;DHT22;7777;52.254;9.618;2023-07-22T00:18:21;15.90;92.00
15355;DHT22;7777;52.254;9.618;2023-07-22T00:20:47;15.90;92.00
15355;DHT22;7777;52.254;9.618;2023-07-22T00:23:13;15.90;92.20
15355;DHT22;7777;52.254;9.618;2023-07-22T00:25:41;15.90;91.90
15355;DHT22;7777;52.254;9.618;2023-07-22T00:28:06;15.90;91.90
15355;DHT22;7777;52.254;9.618;2023-07-22T00:30:32;15.90;92.20
15355;DHT22;7777;52.254;9.618;2023-07-22T00:32:58;15.80;91.80
15355;DHT22;7777;52.254;9.618;2023-07-22T00:35:24;15.80;92.00
15355;DHT22;7777;52.254;9.618;2023-07-22T00:37:50;15.80;91.80
15355;DHT22;7777;52.254;9.618;2023-07-22T00:40:16;15.80;91.80
15355;DHT22;7777;52.254;9.618;2023-07-22T00:42:42;15.80;92.00
15355;DHT22;7777;52.254;9.618;2023-07-22T00:45:08;15.80;91.90
15355;DHT22;7777;52.254;9.618;2023-07-22T00:47:34;15.80;91.90
15355;DHT22;7777;52.254;9.618;2023-07-22T00:50:06;15.70;91.80
15355;DHT22;7777;52.254;9.618;2023-07-22T00:52:36;15.70;91.80
15355;DHT22;7777;52.254;9.618;2023-07-22T00:55:04;15.70;91.90
15355;DHT22;7777;52.254;9.618;2023-07-22T00:57:31;15.70;91.80
15355;DHT22;7777;52.254;9.618;2023-07-22T00:59:56;15.70;92.00
15355;DHT22;7777;52.254;9.618;2023-07-22T01:02:22;15.70;91.80
15355;DHT22;7777;52.254;9.618;2023-07-22T01:04:52;15.70;91.90
15355;DHT22;7777;52.254;9.618;2023-07-22T01:07:17;15.60;91.70
15355;DHT22;7777;52.254;9.618;2023-07-22T01:09:44;15.60;91.80
15355;DHT22;7777;52.254;9.618;2023-07-22T01:12:10;15.60;91.80
15355;DHT22;7777;52.254;9.618;2023-07-22T01:14:37;15.60;91.60
15355;DHT22;7777;52.254;9.618;2023-07-22T01:17:06;15.60;91.70
15355;DHT22;7777;52.254;9.618;2023-07-22T01:19:34;15.60;91.70
15355;DHT22;7777;52.254;9.618;2023-07-22T01:22:02;15.60;91.70
15355;DHT22;7777;52.254;9.618;2023-07-22T01:24:36;15.50;91.70
15355;DHT22;7777;52.254;9.618;2023-07-22T01:27:03;15.60;91.60
15355;DHT22;7777;52.254;9.618;2023-07-22T01:29:33;15.50;91.60
15355;DHT22;7777;52.254;9.618;2023-07-22T01:31:59;15.50;91.50
15355;DHT22;7777;52.254;9.618;2023-07-22T01:34:25;15.50;91.50
15355;DHT22;7777;52.254;9.618;2023-07-22T01:36:51;15.50;91.60
15355;DHT22;7777;52.254;9.618;2023-07-22T01:39:17;15.50;91.50
15355;DHT22;7777;52.254;9.618;2023-07-22T01:41:47;15.50;91.50
15355;DHT22;7777;52.254;9.618;2023-07-22T01:44:13;15.50;91.50
15355;DHT22;7777;52.254;9.618;2023-07-22T01:46:39;15.50;91.40
15355;DHT22;7777;52.254;9.618;2023-07-22T01:49:10;15.40;91.40
15355;DHT22;7777;52.254;9.618;2023-07-22T01:51:38;15.40;91.50
15355;DHT22;7777;52.254;9.618;2023-07-22T01:54:04;15.40;91.50
15355;DHT22;7777;52.254;9.618;2023-07-22T01:56:31;15.40;91.40
15355;DHT22;7777;52.254;9.618;2023-07-22T01:58:56;15.40;91.40
15355;DHT22;7777;52.254;9.618;2023-07-22T02:01:22;15.40;91.40
15355;DHT22;7777;52.254;9.618;2023-07-22T02:03:48;15.40;91.40
15355;DHT22;7777;52.254;9.618;2023-07-22T02:06:13;15.30;91.30
15355;DHT22;7777;52.254;9.618;2023-07-22T02:08:39;15.30;91.30
15355;DHT22;7777;52.254;9.618;2023-07-22T02:11:06;15.30;91.40
15355;DHT22;7777;52.254;9.618;2023-07-22T02:13:34;15.20;91.30
15355;DHT22;7777;52.254;9.618;2023-07-22T02:16:01;15.20;91.30
15355;DHT22;7777;52.254;9.618;2023-07-22T02:18:28;15.20;91.30
15355;DHT22;7777;52.254;9.618;2023-07-22T02:20:54;15.20;91.30
15355;DHT22;7777;52.254;9.618;2023-07-22T02:23:21;15.20;91.30
15355;DHT22;7777;52.254;9.618;2023-07-22T02:25:54;15.20;91.30
15355;DHT22;7777;52.254;9.618;2023-07-22T02:28:20;15.10;91.20
15355;DHT22;7777;52.254;9.618;2023-07-22T02:30:47;15.10;91.20
15355;DHT22;7777;52.254;9.618;2023-07-22T02:33:14;15.10;91.20
15355;DHT22;7777;52.254;9.618;2023-07-22T02:35:41;15.10;91.20
15355;DHT22;7777;52.254;9.618;2023-07-22T02:38:07;15.10;91.20
15355;DHT22;7777;52.254;9.618;2023-07-22T02:40:37;15.00;91.20
15355;DHT22;7777;52.254;9.618;2023-07-22T02:43:03;15.00;91.20
15355;DHT22;7777;52.254;9.618;2023-07-22T02:45:29;15.00;91.20
15355;DHT22;7777;52.254;9.618;2023-07-22T02:47:55;15.00;91.30
15355;DHT22;7777;52.254;9.618;2023-07-22T02:50:21;15.00;91.20
15355;DHT22;7777;52.254;9.618;2023-07-22T02:52:47;14.90;91.20
15355;DHT22;7777;52.254;9.618;2023-07-22T02:55:14;14.90;91.20
15355;DHT22;7777;52.254;9.618;2023-07-22T02:57:44;14.90;91.20
15355;DHT22;7777;52.254;9.618;2023-07-22T03:00:12;14.90;91.40
15355;DHT22;7777;52.254;9.618;2023-07-22T03:02:39;14.90;91.30
15355;DHT22;7777;52.254;9.618;2023-07-22T03:05:06;14.80;91.60
15355;DHT22;7777;52.254;9.618;2023-07-22T03:07:34;14.80;91.40
15355;DHT22;7777;52.254;9.618;2023-07-22T03:10:00;14.80;91.40
15355;DHT22;7777;52.254;9.618;2023-07-22T03:12:26;14.80;91.20
15355;DHT22;7777;52.254;9.618;2023-07-22T03:14:52;14.80;91.30
15355;DHT22;7777;52.254;9.618;2023-07-22T03:17:18;14.80;91.30
15355;DHT22;7777;52.254;9.618;2023-07-22T03:19:44;14.80;91.30
15355;DHT22;7777;52.254;9.618;2023-07-22T03:22:14;14.80;91.40
15355;DHT22;7777;52.254;9.618;2023-07-22T03:24:42;14.80;91.40
15355;DHT22;7777;52.254;9.618;2023-07-22T03:27:08;14.80;91.50
15355;DHT22;7777;52.254;9.618;2023-07-22T03:29:34;14.80;91.40
15355;DHT22;7777;52.254;9.618;2023-07-22T03:31:59;14.80;91.50
15355;DHT22;7777;52.254;9.618;2023-07-22T03:34:29;14.80;91.50
15355;DHT22;7777;52.254;9.618;2023-07-22T03:36:55;14.80;91.50
15355;DHT22;7777;52.254;9.618;2023-07-22T03:39:21;14.70;91.40
15355;DHT22;7777;52.254;9.618;2023-07-22T03:41:47;14.70;91.60
15355;DHT22;7777;52.254;9.618;2023-07-22T03:44:13;14.70;91.60
15355;DHT22;7777;52.254;9.618;2023-07-22T03:46:39;14.70;91.40
15355;DHT22;7777;52.254;9.618;2023-07-22T03:49:05;14.70;91.50
15355;DHT22;7777;52.254;9.618;2023-07-22T03:51:32;14.70;91.50
15355;DHT22;7777;52.254;9.618;2023-07-22T03:53:58;14.70;91.40
15355;DHT22;7777;52.254;9.618;2023-07-22T03:56:24;14.70;91.30
15355;DHT22;7777;52.254;9.618;2023-07-22T03:58:53;14.70;91.40
15355;DHT22;7777;52.254;9.618;2023-07-22T04:01:19;14.70;91.40
15355;DHT22;7777;52.254;9.618;2023-07-22T04:03:45;14.70;91.60
15355;DHT22;7777;52.254;9.618;2023-07-22T04:06:11;14.70;91.60
15355;DHT22;7777;52.254;9.618;2023-07-22T04:08:37;14.70;91.60
15355;DHT22;7777;52.254;9.618;2023-07-22T04:11:02;14.70;91.60
15355;DHT22;7777;52.254;9.618;2023-07-22T04:13:28;14.70;91.50
15355;DHT22;7777;52.254;9.618;2023-07-22T04:15:54;14.70;91.40
15355;DHT22;7777;52.254;9.618;2023-07-22T04:18:21;14.70;91.50
15355;DHT22;7777;52.254;9.618;2023-07-22T04:20:47;14.70;91.40
15355;DHT22;7777;52.254;9.618;2023-07-22T04:23:16;14.70;91.80
15355;DHT22;7777;52.254;9.618;2023-07-22T04:25:44;14.70;91.50
15355;DHT22;7777;52.254;9.618;2023-07-22T04:28:10;14.70;91.60
15355;DHT22;7777;52.254;9.618;2023-07-22T04:30:37;14.70;91.40
15355;DHT22;7777;52.254;9.618;2023-07-22T04:33:05;14.70;91.50
15355;DHT22;7777;52.254;9.618;2023-07-22T04:35:36;14.80;91.60
15355;DHT22;7777;52.254;9.618;2023-07-22T04:38:03;14.80;91.50
15355;DHT22;7777;52.254;9.618;2023-07-22T04:40:29;14.80;91.50
15355;DHT22;7777;52.254;9.618;2023-07-22T04:42:56;14.80;91.70
15355;DHT22;7777;52.254;9.618;2023-07-22T04:45:22;14.80;91.60
15355;DHT22;7777;52.254;9.618;2023-07-22T04:47:51;14.80;91.70
15355;DHT22;7777;52.254;9.618;2023-07-22T04:50:17;14.80;91.60
15355;DHT22;7777;52.254;9.618;2023-07-22T04:52:46;14.80;91.70
15355;DHT22;7777;52.254;9.618;2023-07-22T04:55:13;14.80;91.60
15355;DHT22;7777;52.254;9.618;2023-07-22T04:57:40;14.90;91.60
15355;DHT22;7777;52.254;9.618;2023-07-22T05:00:08;14.90;91.60
15355;DHT22;7777;52.254;9.618;2023-07-22T05:02:42;14.90;91.60
15355;DHT22;7777;52.254;9.618;2023-07-22T05:05:15;14.90;91.80
15355;DHT22;7777;52.254;9.618;2023-07-22T05:07:42;14.90;91.60
15355;DHT22;7777;52.254;9.618;2023-07-22T05:10:09;15.00;91.70
15355;DHT22;7777;52.254;9.618;2023-07-22T05:12:41;15.00;91.70
15355;DHT22;7777;52.254;9.618;2023-07-22T05:15:09;15.00;91.60
15355;DHT22;7777;52.254;9.618;2023-07-22T05:17:35;15.00;91.80
15355;DHT22;7777;52.254;9.618;2023-07-22T05:20:01;15.00;91.70
15355;DHT22;7777;52.254;9.618;2023-07-22T05:22:27;15.00;91.70
15355;DHT22;7777;52.254;9.618;2023-07-22T05:24:52;15.10;91.70
15355;DHT22;7777;52.254;9.618;2023-07-22T05:27:18;15.10;91.80
15355;DHT22;7777;52.254;9.618;2023-07-22T05:29:44;15.10;92.30
15355;DHT22;7777;52.254;9.618;2023-07-22T05:32:11;15.10;91.80
15355;DHT22;7777;52.254;9.618;2023-07-22T05:34:37;15.10;91.80
15355;DHT22;7777;52.254;9.618;2023-07-22T05:37:02;15.20;91.80
15355;DHT22;7777;52.254;9.618;2023-07-22T05:39:28;15.20;91.80
15355;DHT22;7777;52.254;9.618;2023-07-22T05:41:54;15.20;91.80
15355;DHT22;7777;52.254;9.618;2023-07-22T05:44:20;15.20;91.80
15355;DHT22;7777;52.254;9.618;2023-07-22T05:46:46;15.30;91.80
15355;DHT22;7777;52.254;9.618;2023-07-22T05:49:12;15.30;91.80
15355;DHT22;7777;52.254;9.618;2023-07-22T05:51:38;15.30;91.90
15355;DHT22;7777;52.254;9.618;2023-07-22T05:54:03;15.40;92.00
15355;DHT22;7777;52.254;9.618;2023-07-22T05:56:32;15.40;92.40
15355;DHT22;7777;52.254;9.618;2023-07-22T05:58:57;15.40;92.10
15355;DHT22;7777;52.254;9.618;2023-07-22T06:01:23;15.40;92.10
15355;DHT22;7777;52.254;9.618;2023-07-22T06:03:50;15.50;92.10
15355;DHT22;7777;52.254;9.618;2023-07-22T06:06:16;15.50;92.10
15355;DHT22;7777;52.254;9.618;2023-07-22T06:08:42;15.60;92.50
15355;DHT22;7777;52.254;9.618;2023-07-22T06:11:07;15.60;92.10
15355;DHT22;7777;52.254;9.618;2023-07-22T06:13:33;15.60;92.20
15355;DHT22;7777;52.254;9.618;2023-07-22T06:15:59;15.70;92.10
15355;DHT22;7777;52.254;9.618;2023-07-22T06:18:25;15.70;92.20
15355;DHT22;7777;52.254;9.618;2023-07-22T06:20:50;15.70;92.40
15355;DHT22;7777;52.254;9.618;2023-07-22T06:23:16;15.80;92.30
15355;DHT22;7777;52.254;9.618;2023-07-22T06:25:42;15.80;92.20
15355;DHT22;7777;52.254;9.618;2023-07-22T06:28:08;15.80;92.20
15355;DHT22;7777;52.254;9.618;2023-07-22T06:30:34;15.90;92.20
15355;DHT22;7777;52.254;9.618;2023-07-22T06:33:00;15.90;92.30
15355;DHT22;7777;52.254;9.618;2023-07-22T06:35:26;15.90;92.40
15355;DHT22;7777;52.254;9.618;2023-07-22T06:37:52;15.90;92.40
15355;DHT22;7777;52.254;9.618;2023-07-22T06:40:18;15.90;92.40
15355;DHT22;7777;52.254;9.618;2023-07-22T06:42:43;16.00;92.40
15355;DHT22;7777;52.254;9.618;2023-07-22T06:45:09;16.00;92.40
15355;DHT22;7777;52.254;9.618;2023-07-22T06:47:36;16.00;92.40
15355;DHT22;7777;52.254;9.618;2023-07-22T06:50:02;16.10;92.80
15355;DHT22;7777;52.254;9.618;2023-07-22T06:52:30;16.10;92.70
15355;DHT22;7777;52.254;9.618;2023-07-22T06:54:56;16.20;92.70
15355;DHT22;7777;52.254;9.618;2023-07-22T06:57:22;16.20;92.80
15355;DHT22;7777;52.254;9.618;2023-07-22T06:59:49;16.20;92.70
15355;DHT22;7777;52.254;9.618;2023-07-22T07:02:16;16.30;92.80
15355;DHT22;7777;52.254;9.618;2023-07-22T07:04:42;16.30;92.80
15355;DHT22;7777;52.254;9.618;2023-07-22T07:07:08;16.40;92.80
15355;DHT22;7777;52.254;9.618;2023-07-22T07:09:35;16.40;92.90
15355;DHT22;7777;52.254;9.618;2023-07-22T07:12:00;16.50;93.00
15355;DHT22;7777;52.254;9.618;2023-07-22T07:14:26;16.50;92.90
15355;DHT22;7777;52.254;9.618;2023-07-22T07:16:52;16.50;92.80
15355;DHT22;7777;52.254;9.618;2023-07-22T07:19:18;16.60;92.90
15355;DHT22;7777;52.254;9.618;2023-07-22T07:21:44;16.60;93.10
15355;DHT22;7777;52.254;9.618;2023-07-22T07:24:09;16.60;93.10
15355;DHT22;7777;52.254;9.618;2023-07-22T07:26:35;16.70;92.90
15355;DHT22;7777;52.254;9.618;2023-07-22T07:29:01;16.70;92.90
15355;DHT22;7777;52.254;9.618;2023-07-22T07:31:26;16.70;93.00
15355;DHT22;7777;52.254;9.618;2023-07-22T07:33:53;16.80;93.00
15355;DHT22;7777;52.254;9.618;2023-07-22T07:36:18;16.80;93.00
15355;DHT22;7777;52.254;9.618;2023-07-22T07:38:44;16.90;93.00
15355;DHT22;7777;52.254;9.618;2023-07-22T07:41:10;16.90;93.00
15355;DHT22;7777;52.254;9.618;2023-07-22T07:43:40;17.00;93.00
15355;DHT22;7777;52.254;9.618;2023-07-22T07:48:45;17.10;93.30
15355;DHT22;7777;52.254;9.618;2023-07-22T07:51:19;17.20;93.30
15355;DHT22;7777;52.254;9.618;2023-07-22T07:53:46;17.20;93.30
15355;DHT22;7777;52.254;9.618;2023-07-22T07:56:16;17.20;93.30
15355;DHT22;7777;52.254;9.618;2023-07-22T07:58:43;17.30;93.30
15355;DHT22;7777;52.254;9.618;2023-07-22T08:01:10;17.30;93.20
15355;DHT22;7777;52.254;9.618;2023-07-22T08:03:37;17.30;93.20
15355;DHT22;7777;52.254;9.618;2023-07-22T08:06:04;17.40;93.20
15355;DHT22;7777;52.254;9.618;2023-07-22T08:08:30;17.40;93.20
15355;DHT22;7777;52.254;9.618;2023-07-22T08:13:24;17.40;93.20
15355;DHT22;7777;52.254;9.618;2023-07-22T08:15:51;17.50;93.20
15355;DHT22;7777;52.254;9.618;2023-07-22T08:18:18;17.50;93.20
15355;DHT22;7777;52.254;9.618;2023-07-22T08:20:43;17.50;93.20
15355;DHT22;7777;52.254;9.618;2023-07-22T08:23:09;17.60;93.30
15355;DHT22;7777;52.254;9.618;2023-07-22T08:25:34;17.60;93.30
15355;DHT22;7777;52.254;9.618;2023-07-22T08:28:00;17.70;93.30
15355;DHT22;7777;52.254;9.618;2023-07-22T08:30:26;17.70;93.40
15355;DHT22;7777;52.254;9.618;2023-07-22T08:32:51;17.80;93.60
15355;DHT22;7777;52.254;9.618;2023-07-22T08:35:17;17.80;93.40
15355;DHT22;7777;52.254;9.618;2023-07-22T08:37:43;17.90;93.50
15355;DHT22;7777;52.254;9.618;2023-07-22T08:40:09;17.90;93.50
15355;DHT22;7777;52.254;9.618;2023-07-22T08:42:36;18.00;93.50
15355;DHT22;7777;52.254;9.618;2023-07-22T08:45:04;18.10;93.60
15355;DHT22;7777;52.254;9.618;2023-07-22T08:47:32;18.20;93.80
15355;DHT22;7777;52.254;9.618;2023-07-22T08:50:01;18.20;93.70
15355;DHT22;7777;52.254;9.618;2023-07-22T08:52:28;18.30;93.80
15355;DHT22;7777;52.254;9.618;2023-07-22T08:54:55;18.40;93.80
15355;DHT22;7777;52.254;9.618;2023-07-22T08:57:21;18.50;93.70
15355;DHT22;7777;52.254;9.618;2023-07-22T08:59:48;18.60;93.70
15355;DHT22;7777;52.254;9.618;2023-07-22T09:02:14;18.60;93.70
15355;DHT22;7777;52.254;9.618;2023-07-22T09:04:41;18.60;93.70
15355;DHT22;7777;52.254;9.618;2023-07-22T09:07:08;18.70;93.70
15355;DHT22;7777;52.254;9.618;2023-07-22T09:09:36;18.70;93.70
15355;DHT22;7777;52.254;9.618;2023-07-22T09:12:02;18.70;93.60
15355;DHT22;7777;52.254;9.618;2023-07-22T09:14:30;18.70;93.50
15355;DHT22;7777;52.254;9.618;2023-07-22T09:16:58;18.80;93.60
15355;DHT22;7777;52.254;9.618;2023-07-22T09:19:24;18.80;93.60
15355;DHT22;7777;52.254;9.618;2023-07-22T09:21:49;18.90;93.60
15355;DHT22;7777;52.254;9.618;2023-07-22T09:24:23;18.90;93.70
15355;DHT22;7777;52.254;9.618;2023-07-22T09:26:50;18.90;93.70
15355;DHT22;7777;52.254;9.618;2023-07-22T09:29:16;19.00;93.50
15355;DHT22;7777;52.254;9.618;2023-07-22T09:31:51;19.00;93.20
15355;DHT22;7777;52.254;9.618;2023-07-22T09:34:20;19.10;93.50
15355;DHT22;7777;52.254;9.618;2023-07-22T09:36:56;19.10;93.40
15355;DHT22;7777;52.254;9.618;2023-07-22T09:39:26;19.20;93.70
15355;DHT22;7777;52.254;9.618;2023-07-22T09:41:52;19.30;93.70
15355;DHT22;7777;52.254;9.618;2023-07-22T09:44:23;19.40;93.60
15355;DHT22;7777;52.254;9.618;2023-07-22T09:46:55;19.40;93.40
15355;DHT22;7777;52.254;9.618;2023-07-22T09:49:20;19.50;93.30
15355;DHT22;7777;52.254;9.618;2023-07-22T09:51:46;19.60;93.50
15355;DHT22;7777;52.254;9.618;2023-07-22T09:54:12;19.70;93.50
15355;DHT22;7777;52.254;9.618;2023-07-22T09:56:45;19.80;93.50
15355;DHT22;7777;52.254;9.618;2023-07-22T09:59:14;19.90;93.50
15355;DHT22;7777;52.254;9.618;2023-07-22T10:01:41;20.00;93.50
15355;DHT22;7777;52.254;9.618;2023-07-22T10:04:08;20.10;93.50
15355;DHT22;7777;52.254;9.618;2023-07-22T10:06:35;20.10;93.40
15355;DHT22;7777;52.254;9.618;2023-07-22T10:09:03;20.10;92.70
15355;DHT22;7777;52.254;9.618;2023-07-22T10:11:34;20.10;92.80
15355;DHT22;7777;52.254;9.618;2023-07-22T10:14:02;20.10;92.80
15355;DHT22;7777;52.254;9.618;2023-07-22T10:16:29;20.10;92.50
15355;DHT22;7777;52.254;9.618;2023-07-22T10:18:55;20.10;92.60
15355;DHT22;7777;52.254;9.618;2023-07-22T10:21:23;20.10;92.70
15355;DHT22;7777;52.254;9.618;2023-07-22T10:23:50;20.10;92.80
15355;DHT22;7777;52.254;9.618;2023-07-22T10:26:19;20.20;92.80
15355;DHT22;7777;52.254;9.618;2023-07-22T10:28:46;20.20;93.00
15355;DHT22;7777;52.254;9.618;2023-07-22T10:31:15;20.20;93.00
15355;DHT22;7777;52.254;9.618;2023-07-22T10:33:47;20.20;93.00
15355;DHT22;7777;52.254;9.618;2023-07-22T10:36:16;20.20;92.80
15355;DHT22;7777;52.254;9.618;2023-07-22T10:38:43;20.20;92.80
15355;DHT22;7777;52.254;9.618;2023-07-22T10:41:14;20.20;92.80
15355;DHT22;7777;52.254;9.618;2023-07-22T10:43:54;20.30;93.00
15355;DHT22;7777;52.254;9.618;2023-07-22T10:46:38;20.30;93.00
15355;DHT22;7777;52.254;9.618;2023-07-22T10:49:12;20.30;92.80
15355;DHT22;7777;52.254;9.618;2023-07-22T10:51:41;20.30;92.40
15355;DHT22;7777;52.254;9.618;2023-07-22T10:54:13;20.20;92.10
15355;DHT22;7777;52.254;9.618;2023-07-22T10:56:44;20.10;91.70
15355;DHT22;7777;52.254;9.618;2023-07-22T10:59:12;20.10;91.90
15355;DHT22;7777;52.254;9.618;2023-07-22T11:01:39;20.10;91.80
15355;DHT22;7777;52.254;9.618;2023-07-22T11:04:22;20.10;92.10
15355;DHT22;7777;52.254;9.618;2023-07-22T11:06:57;20.10;92.30
15355;DHT22;7777;52.254;9.618;2023-07-22T11:11:54;20.20;92.50
15355;DHT22;7777;52.254;9.618;2023-07-22T11:14:26;20.20;92.50
15355;DHT22;7777;52.254;9.618;2023-07-22T11:16:53;20.20;92.40
15355;DHT22;7777;52.254;9.618;2023-07-22T11:19:21;20.20;91.90
15355;DHT22;7777;52.254;9.618;2023-07-22T11:21:49;20.30;92.40
15355;DHT22;7777;52.254;9.618;2023-07-22T11:24:16;20.30;91.80
15355;DHT22;7777;52.254;9.618;2023-07-22T11:26:43;20.30;91.80
15355;DHT22;7777;52.254;9.618;2023-07-22T11:29:13;20.30;91.60
15355;DHT22;7777;52.254;9.618;2023-07-22T11:31:41;20.30;92.00
15355;DHT22;7777;52.254;9.618;2023-07-22T11:34:09;20.30;91.50
15355;DHT22;7777;52.254;9.618;2023-07-22T11:36:35;20.40;91.90
15355;DHT22;7777;52.254;9.618;2023-07-22T11:39:08;20.40;91.70
15355;DHT22;7777;52.254;9.618;2023-07-22T11:41:36;20.40;91.20
15355;DHT22;7777;52.254;9.618;2023-07-22T11:44:04;20.40;91.40
15355;DHT22;7777;52.254;9.618;2023-07-22T11:46:35;20.40;91.80
15355;DHT22;7777;52.254;9.618;2023-07-22T11:49:02;20.30;91.30
15355;DHT22;7777;52.254;9.618;2023-07-22T11:51:28;20.30;91.20
15355;DHT22;7777;52.254;9.618;2023-07-22T11:53:55;20.30;91.60
15355;DHT22;7777;52.254;9.618;2023-07-22T11:56:26;20.30;91.80
15355;DHT22;7777;52.254;9.618;2023-07-22T11:58:54;20.30;91.90
15355;DHT22;7777;52.254;9.618;2023-07-22T12:01:21;20.30;91.90
15355;DHT22;7777;52.254;9.618;2023-07-22T12:03:47;20.30;91.90
15355;DHT22;7777;52.254;9.618;2023-07-22T12:06:14;20.40;92.00
15355;DHT22;7777;52.254;9.618;2023-07-22T12:08:46;20.40;92.00
15355;DHT22;7777;52.254;9.618;2023-07-22T12:11:20;20.40;92.10
15355;DHT22;7777;52.254;9.618;2023-07-22T12:13:47;20.50;92.20
15355;DHT22;7777;52.254;9.618;2023-07-22T12:16:22;20.50;92.30
15355;DHT22;7777;52.254;9.618;2023-07-22T12:18:54;20.60;92.30
15355;DHT22;7777;52.254;9.618;2023-07-22T12:21:21;20.70;92.40
15355;DHT22;7777;52.254;9.618;2023-07-22T12:23:47;20.70;92.40
15355;DHT22;7777;52.254;9.618;2023-07-22T12:26:13;20.80;92.50
15355;DHT22;7777;52.254;9.618;2023-07-22T12:28:38;20.90;92.60
15355;DHT22;7777;52.254;9.618;2023-07-22T12:31:04;21.00;92.20
15355;DHT22;7777;52.254;9.618;2023-07-22T12:33:30;21.10;92.60
15355;DHT22;7777;52.254;9.618;2023-07-22T12:35:57;21.20;92.60
15355;DHT22;7777;52.254;9.618;2023-07-22T12:38:23;21.20;92.20
15355;DHT22;7777;52.254;9.618;2023-07-22T12:40:49;21.30;92.20
15355;DHT22;7777;52.254;9.618;2023-07-22T12:43:15;21.30;91.80
15355;DHT22;7777;52.254;9.618;2023-07-22T12:45:40;21.30;91.50
15355;DHT22;7777;52.254;9.618;2023-07-22T12:48:06;21.30;91.50
15355;DHT22;7777;52.254;9.618;2023-07-22T12:50:33;21.20;91.40
15355;DHT22;7777;52.254;9.618;2023-07-22T12:52:59;21.30;91.80
15355;DHT22;7777;52.254;9.618;2023-07-22T12:55:25;21.30;91.80
15355;DHT22;7777;52.254;9.618;2023-07-22T12:57:51;21.30;91.80
15355;DHT22;7777;52.254;9.618;2023-07-22T13:00:17;21.30;91.90
15355;DHT22;7777;52.254;9.618;2023-07-22T13:02:43;21.30;92.00
15355;DHT22;7777;52.254;9.618;2023-07-22T13:05:09;21.30;92.00
15355;DHT22;7777;52.254;9.618;2023-07-22T13:07:35;21.30;91.90
15355;DHT22;7777;52.254;9.618;2023-07-22T13:10:02;21.40;91.60
15355;DHT22;7777;52.254;9.618;2023-07-22T13:12:34;21.40;91.90
15355;DHT22;7777;52.254;9.618;2023-07-22T13:15:00;21.50;92.10
15355;DHT22;7777;52.254;9.618;2023-07-22T13:17:26;21.60;92.10
15355;DHT22;7777;52.254;9.618;2023-07-22T13:19:51;21.70;92.10
15355;DHT22;7777;52.254;9.618;2023-07-22T13:22:17;21.70;92.00
15355;DHT22;7777;52.254;9.618;2023-07-22T13:24:43;21.80;91.50
15355;DHT22;7777;52.254;9.618;2023-07-22T13:27:08;21.90;92.00
15355;DHT22;7777;52.254;9.618;2023-07-22T13:29:34;22.00;91.80
15355;DHT22;7777;52.254;9.618;2023-07-22T13:32:00;22.10;91.90
15355;DHT22;7777;52.254;9.618;2023-07-22T13:34:26;22.10;91.80
15355;DHT22;7777;52.254;9.618;2023-07-22T13:36:51;22.20;91.40
15355;DHT22;7777;52.254;9.618;2023-07-22T13:39:17;22.20;91.70
15355;DHT22;7777;52.254;9.618;2023-07-22T13:41:43;22.20;91.70
15355;DHT22;7777;52.254;9.618;2023-07-22T13:44:09;22.30;91.70
15355;DHT22;7777;52.254;9.618;2023-07-22T13:46:34;22.30;91.70
15355;DHT22;7777;52.254;9.618;2023-07-22T13:49:00;22.30;91.40
15355;DHT22;7777;52.254;9.618;2023-07-22T13:51:26;22.40;91.50
15355;DHT22;7777;52.254;9.618;2023-07-22T13:53:51;22.40;91.70
15355;DHT22;7777;52.254;9.618;2023-07-22T13:56:17;22.40;91.80
15355;DHT22;7777;52.254;9.618;2023-07-22T13:58:43;22.50;91.70
15355;DHT22;7777;52.254;9.618;2023-07-22T14:01:09;22.50;91.50
15355;DHT22;7777;52.254;9.618;2023-07-22T14:03:35;22.50;91.70
15355;DHT22;7777;52.254;9.618;2023-07-22T14:06:00;22.50;91.30
15355;DHT22;7777;52.254;9.618;2023-07-22T14:08:26;22.50;91.10
15355;DHT22;7777;52.254;9.618;2023-07-22T14:10:52;22.50;91.40
15355;DHT22;7777;52.254;9.618;2023-07-22T14:13:18;22.50;91.00
15355;DHT22;7777;52.254;9.618;2023-07-22T14:15:43;22.50;91.20
15355;DHT22;7777;52.254;9.618;2023-07-22T14:18:09;22.50;90.70
15355;DHT22;7777;52.254;9.618;2023-07-22T14:20:35;22.50;90.90
15355;DHT22;7777;52.254;9.618;2023-07-22T14:23:01;22.50;91.10
15355;DHT22;7777;52.254;9.618;2023-07-22T14:25:28;22.50;91.20
15355;DHT22;7777;52.254;9.618;2023-07-22T14:27:53;22.50;91.30
15355;DHT22;7777;52.254;9.618;2023-07-22T14:30:19;22.50;91.30
15355;DHT22;7777;52.254;9.618;2023-07-22T14:32:45;22.50;91.20
15355;DHT22;7777;52.254;9.618;2023-07-22T14:35:10;22.50;91.10
15355;DHT22;7777;52.254;9.618;2023-07-22T14:37:36;22.60;91.00
15355;DHT22;7777;52.254;9.618;2023-07-22T14:40:03;22.60;90.70
15355;DHT22;7777;52.254;9.618;2023-07-22T14:42:30;22.70;90.70
15355;DHT22;7777;52.254;9.618;2023-07-22T14:44:56;22.70;90.90
15355;DHT22;7777;52.254;9.618;2023-07-22T14:47:22;22.70;90.60
15355;DHT22;7777;52.254;9.618;2023-07-22T14:49:47;22.70;90.80
15355;DHT22;7777;52.254;9.618;2023-07-22T14:52:13;22.70;90.80
15355;DHT22;7777;52.254;9.618;2023-07-22T14:54:39;22.70;90.00
15355;DHT22;7777;52.254;9.618;2023-07-22T14:57:04;22.70;90.20
15355;DHT22;7777;52.254;9.618;2023-07-22T14:59:30;22.70;90.30
15355;DHT22;7777;52.254;9.618;2023-07-22T15:01:56;22.80;90.30
15355;DHT22;7777;52.254;9.618;2023-07-22T15:04:22;22.70;89.50
15355;DHT22;7777;52.254;9.618;2023-07-22T15:06:47;22.70;90.00
15355;DHT22;7777;52.254;9.618;2023-07-22T15:09:13;22.70;88.80
15355;DHT22;7777;52.254;9.618;2023-07-22T15:11:39;22.70;90.10
15355;DHT22;7777;52.254;9.618;2023-07-22T15:14:05;22.70;89.00
15355;DHT22;7777;52.254;9.618;2023-07-22T15:16:31;22.70;90.00
15355;DHT22;7777;52.254;9.618;2023-07-22T15:18:57;22.70;90.20
15355;DHT22;7777;52.254;9.618;2023-07-22T15:21:23;22.70;90.10
15355;DHT22;7777;52.254;9.618;2023-07-22T15:23:49;22.70;90.40
15355;DHT22;7777;52.254;9.618;2023-07-22T15:26:15;22.70;90.50
15355;DHT22;7777;52.254;9.618;2023-07-22T15:28:41;22.80;90.60
15355;DHT22;7777;52.254;9.618;2023-07-22T15:31:07;22.80;90.70
15355;DHT22;7777;52.254;9.618;2023-07-22T15:33:36;22.80;90.80
15355;DHT22;7777;52.254;9.618;2023-07-22T15:36:02;22.80;90.60
15355;DHT22;7777;52.254;9.618;2023-07-22T15:38:28;22.80;90.70
15355;DHT22;7777;52.254;9.618;2023-07-22T15:40:54;22.80;90.80
15355;DHT22;7777;52.254;9.618;2023-07-22T15:43:19;22.80;90.70
15355;DHT22;7777;52.254;9.618;2023-07-22T15:45:45;22.80;90.70
15355;DHT22;7777;52.254;9.618;2023-07-22T15:48:11;22.80;90.80
15355;DHT22;7777;52.254;9.618;2023-07-22T15:50:37;22.80;90.80
15355;DHT22;7777;52.254;9.618;2023-07-22T15:53:02;22.80;90.80